Time;durP1;ratioP1;P1;durP2;ratioP2;P2;SDS_P1;SDS_P2;PMS_P1;PMS_P2;Temp;Humidity;BMP_temperature;BMP_pressure;BME280_temperature;BME280_humidity;BME280_pressure;Samples;Min_cycle;Max_cycle;Signal;HPM_P1;HPM_P2
2024/01/28 00:00:45;;;;;;;16.30;4.47;;;3.20;99.90;;;;;;4994920;28;20490;-60
2024/01/28 00:03:11;;;;;;;9.93;4.73;;;3.20;99.90;;;;;;5000702;28;20526;-59
2024/01/28 00:05:37;;;;;;;9.73;3.90;;;3.20;99.90;;;;;;4992539;28;20201;-60
2024/01/28 00:08:06;;;;;;;15.60;4.23;;;3.10;99.90;;;;;;4992760;28;20475;-60
2024/01/28 00:10:32;;;;;;;10.87;4.83;;;3.00;99.90;;;;;;4992164;28;20255;-60
2024/01/28 00:12:58;;;;;;;10.47;4.50;;;3.00;99.90;;;;;;4992528;28;20416;-60
2024/01/28 00:15:24;;;;;;;13.73;4.80;;;2.90;99.90;;;;;;4990950;28;20458;-60
2024/01/28 00:17:54;;;;;;;9.33;4.47;;;2.80;99.90;;;;;;5000118;28;20169;-60
2024/01/28 00:20:19;;;;;;;8.70;3.70;;;2.80;99.90;;;;;;4993128;28;20957;-59
2024/01/28 00:22:45;;;;;;;10.97;3.90;;;2.90;99.90;;;;;;4991793;28;20413;-60
2024/01/28 00:25:11;;;;;;;12.13;3.73;;;3.00;99.90;;;;;;4992611;28;20654;-59
2024/01/28 00:27:36;;;;;;;11.83;5.23;;;2.80;99.90;;;;;;4991957;28;20547;-60
2024/01/28 00:30:04;;;;;;;5.03;3.23;;;2.70;99.90;;;;;;4992231;28;20193;-59
2024/01/28 00:32:29;;;;;;;17.87;4.07;;;2.80;99.90;;;;;;4991831;28;20180;-60
2024/01/28 00:34:55;;;;;;;16.20;5.70;;;2.70;99.90;;;;;;4992105;28;20448;-60
2024/01/28 00:37:21;;;;;;;11.90;4.57;;;2.60;99.90;;;;;;4992386;28;20173;-60
2024/01/28 00:39:47;;;;;;;8.97;4.07;;;2.60;99.90;;;;;;4991970;28;20967;-60
2024/01/28 00:42:12;;;;;;;13.97;4.57;;;2.60;99.90;;;;;;4992286;28;20169;-60
2024/01/28 00:44:39;;;;;;;9.63;4.60;;;2.70;99.90;;;;;;4991865;28;20651;-60
2024/01/28 00:47:04;;;;;;;18.50;5.53;;;2.80;99.90;;;;;;4991749;28;20186;-60
2024/01/28 00:49:30;;;;;;;9.63;5.27;;;2.80;99.90;;;;;;4999557;28;20961;-60
2024/01/28 00:51:56;;;;;;;13.97;6.17;;;2.70;99.90;;;;;;4991950;28;20683;-60
2024/01/28 00:54:23;;;;;;;15.77;6.60;;;2.70;99.90;;;;;;4991996;28;20455;-58
2024/01/28 00:56:49;;;;;;;15.73;6.33;;;2.70;99.90;;;;;;4986620;28;20482;-59
2024/01/28 00:59:14;;;;;;;15.37;5.90;;;2.60;99.90;;;;;;4991872;28;20405;-60
2024/01/28 01:01:40;;;;;;;10.30;6.20;;;2.50;99.90;;;;;;4991822;28;20555;-60
2024/01/28 01:04:06;;;;;;;10.30;5.30;;;2.40;99.90;;;;;;4991826;28;20205;-60
2024/01/28 01:06:31;;;;;;;11.03;4.90;;;2.40;99.90;;;;;;4991442;28;20177;-60
2024/01/28 01:08:57;;;;;;;20.57;6.57;;;2.50;99.90;;;;;;4991820;28;20495;-60
2024/01/28 01:11:23;;;;;;;16.20;5.53;;;2.50;99.90;;;;;;4992821;28;20188;-60
2024/01/28 01:13:51;;;;;;;14.20;5.80;;;2.40;99.90;;;;;;4991520;28;20268;-60
2024/01/28 01:16:17;;;;;;;9.07;5.83;;;2.40;99.90;;;;;;4993010;28;20470;-60
2024/01/28 01:18:43;;;;;;;11.37;5.30;;;2.40;99.90;;;;;;4991602;28;20447;-60
2024/01/28 01:21:08;;;;;;;8.93;4.23;;;2.70;99.90;;;;;;4991421;28;20254;-60
2024/01/28 01:23:34;;;;;;;13.37;5.70;;;2.70;99.90;;;;;;4991350;28;20420;-60
2024/01/28 01:26:00;;;;;;;8.77;6.03;;;2.60;99.90;;;;;;4992085;28;20173;-60
2024/01/28 01:28:31;;;;;;;8.37;5.90;;;2.50;99.90;;;;;;4991476;28;20251;-60
2024/01/28 01:30:58;;;;;;;12.87;7.10;;;2.40;99.90;;;;;;4991221;28;20204;-60
2024/01/28 01:33:23;;;;;;;17.50;7.30;;;2.30;99.90;;;;;;4993201;28;20416;-60
2024/01/28 01:35:49;;;;;;;7.77;5.57;;;2.30;99.90;;;;;;4991186;28;21039;-60
2024/01/28 01:38:14;;;;;;;7.87;6.07;;;2.20;99.90;;;;;;4992024;28;20161;-60
2024/01/28 01:40:40;;;;;;;13.20;6.17;;;2.20;99.90;;;;;;4991274;28;20185;-60
2024/01/28 01:43:09;;;;;;;16.23;6.33;;;2.20;99.90;;;;;;4991663;28;20643;-60
2024/01/28 01:45:37;;;;;;;13.03;4.80;;;2.10;99.90;;;;;;4991507;28;20173;-61
2024/01/28 01:48:05;;;;;;;16.50;4.80;;;2.30;99.90;;;;;;4991407;28;20981;-60
2024/01/28 01:50:31;;;;;;;11.20;4.90;;;2.30;99.90;;;;;;4998342;28;20498;-60
2024/01/28 01:52:57;;;;;;;7.37;5.53;;;2.20;99.90;;;;;;4994818;28;20806;-60
2024/01/28 01:55:22;;;;;;;10.07;5.07;;;2.10;99.90;;;;;;5000404;28;20451;-60
2024/01/28 01:57:48;;;;;;;11.80;4.70;;;2.10;99.90;;;;;;4995113;28;20220;-61
2024/01/28 02:00:14;;;;;;;12.93;5.43;;;2.10;99.90;;;;;;4995357;28;20243;-60
2024/01/28 02:02:44;;;;;;;16.80;6.13;;;2.30;99.90;;;;;;4996616;28;20192;-59
2024/01/28 02:05:10;;;;;;;10.40;4.80;;;2.30;99.90;;;;;;4995932;28;20412;-59
2024/01/28 02:07:36;;;;;;;6.83;4.93;;;2.20;99.90;;;;;;4995829;28;20419;-60
2024/01/28 02:10:03;;;;;;;14.47;4.70;;;2.20;99.90;;;;;;4991899;28;20464;-61
2024/01/28 02:12:29;;;;;;;13.07;4.10;;;2.20;99.90;;;;;;4998049;28;20164;-60
2024/01/28 02:15:11;;;;;;;15.30;5.13;;;2.20;99.90;;;;;;4994798;28;20452;-59
2024/01/28 02:17:37;;;;;;;13.00;4.83;;;2.20;99.90;;;;;;4994422;28;20427;-60
2024/01/28 02:20:04;;;;;;;10.90;3.80;;;2.20;99.90;;;;;;4994673;28;20432;-60
2024/01/28 02:22:30;;;;;;;11.90;5.00;;;2.20;99.90;;;;;;4994073;28;20498;-60
2024/01/28 02:24:57;;;;;;;14.23;4.63;;;2.20;99.90;;;;;;4994523;28;20483;-60
2024/01/28 02:27:23;;;;;;;10.93;5.30;;;2.10;99.90;;;;;;4994554;28;20267;-58
2024/01/28 02:29:49;;;;;;;13.50;4.33;;;2.20;99.90;;;;;;4996731;28;20444;-58
2024/01/28 02:32:18;;;;;;;15.03;5.47;;;2.10;99.90;;;;;;4994347;28;20423;-58
2024/01/28 02:34:44;;;;;;;8.53;4.33;;;2.10;99.90;;;;;;4994190;28;20201;-59
2024/01/28 02:37:10;;;;;;;11.07;5.00;;;2.00;99.90;;;;;;4994453;28;20499;-61
2024/01/28 02:39:40;;;;;;;20.90;5.10;;;2.00;99.90;;;;;;4994056;28;20465;-61
2024/01/28 02:42:05;;;;;;;6.73;4.60;;;2.00;99.90;;;;;;4994319;28;20416;-62
2024/01/28 02:44:31;;;;;;;8.77;5.03;;;2.10;99.90;;;;;;4994204;28;20426;-58
2024/01/28 02:46:56;;;;;;;19.33;6.20;;;2.00;99.90;;;;;;4999535;28;20915;-60
2024/01/28 02:49:23;;;;;;;6.10;4.30;;;2.00;99.90;;;;;;4993979;28;20240;-61
2024/01/28 02:51:52;;;;;;;12.87;5.47;;;2.00;99.90;;;;;;4993779;28;20189;-59
2024/01/28 02:54:17;;;;;;;15.53;5.70;;;2.00;99.90;;;;;;4994182;28;20462;-61
2024/01/28 02:56:43;;;;;;;13.80;4.90;;;1.90;99.90;;;;;;4996495;28;20455;-59
2024/01/28 02:59:10;;;;;;;9.90;4.67;;;1.90;99.90;;;;;;4993839;28;20579;-59
2024/01/28 03:01:45;;;;;;;10.20;4.00;;;1.90;99.90;;;;;;4993463;28;20451;-60
2024/01/28 03:04:10;;;;;;;11.90;4.83;;;1.90;99.90;;;;;;4991375;28;20762;-59
2024/01/28 03:06:36;;;;;;;17.13;4.70;;;1.90;99.90;;;;;;4994189;28;21036;-62
2024/01/28 03:09:04;;;;;;;11.50;4.60;;;1.90;99.90;;;;;;4994453;28;20173;-60
2024/01/28 03:11:30;;;;;;;12.20;4.57;;;1.90;99.90;;;;;;4993497;28;20173;-60
2024/01/28 03:13:55;;;;;;;16.10;4.80;;;1.80;99.90;;;;;;4992083;28;20474;-60
2024/01/28 03:16:21;;;;;;;18.63;4.10;;;1.80;99.90;;;;;;4993406;28;20205;-60
2024/01/28 03:18:47;;;;;;;9.80;3.50;;;1.80;99.90;;;;;;4993657;28;20173;-60
2024/01/28 03:21:12;;;;;;;7.33;4.07;;;1.80;99.90;;;;;;4993394;28;20181;-60
2024/01/28 03:23:38;;;;;;;4.63;3.83;;;1.80;99.90;;;;;;4990406;28;20173;-60
2024/01/28 03:26:04;;;;;;;6.77;4.90;;;1.70;99.90;;;;;;4993594;28;20227;-60
2024/01/28 03:28:29;;;;;;;15.90;5.27;;;1.80;99.90;;;;;;4993401;28;20181;-60
2024/01/28 03:30:55;;;;;;;18.30;5.40;;;1.80;99.90;;;;;;4998797;28;20726;-62
2024/01/28 03:33:20;;;;;;;17.30;5.20;;;1.80;99.90;;;;;;4991261;28;20165;-60
2024/01/28 03:35:46;;;;;;;13.90;3.97;;;1.80;99.90;;;;;;4992817;28;20196;-61
2024/01/28 03:38:12;;;;;;;12.50;5.37;;;1.80;99.90;;;;;;4992852;28;20173;-59
2024/01/28 03:40:37;;;;;;;7.53;4.37;;;1.80;99.90;;;;;;4993092;28;20272;-61
2024/01/28 03:43:03;;;;;;;12.60;4.73;;;1.80;99.90;;;;;;4992947;28;20169;-60
2024/01/28 03:45:29;;;;;;;11.53;4.40;;;1.70;99.90;;;;;;4993211;28;20699;-60
2024/01/28 03:47:54;;;;;;;10.63;4.93;;;1.70;99.90;;;;;;4993300;28;20268;-61
2024/01/28 03:50:21;;;;;;;9.47;5.57;;;1.70;99.90;;;;;;4992810;28;20592;-61
2024/01/28 03:52:47;;;;;;;13.13;5.40;;;1.70;99.90;;;;;;4992960;28;20184;-60
2024/01/28 03:55:12;;;;;;;12.43;4.20;;;1.80;99.90;;;;;;4993089;28;20452;-61
2024/01/28 03:57:39;;;;;;;9.33;4.87;;;1.70;99.90;;;;;;4992820;28;20180;-60
2024/01/28 04:00:06;;;;;;;9.57;5.07;;;1.60;99.90;;;;;;4996790;28;20651;-60
2024/01/28 04:02:32;;;;;;;13.50;4.30;;;1.70;99.90;;;;;;4994406;28;20419;-60
2024/01/28 04:04:58;;;;;;;8.50;5.40;;;1.60;99.90;;;;;;4999129;28;20911;-60
2024/01/28 04:07:23;;;;;;;8.63;5.50;;;1.60;99.90;;;;;;4992607;28;20660;-60
2024/01/28 04:09:49;;;;;;;12.23;4.70;;;1.60;99.90;;;;;;4992438;28;20690;-60
2024/01/28 04:12:14;;;;;;;16.17;5.83;;;1.60;99.90;;;;;;4992407;28;20215;-60
2024/01/28 04:14:40;;;;;;;9.17;4.63;;;1.60;99.90;;;;;;4992341;28;20229;-60
2024/01/28 04:17:06;;;;;;;7.07;4.33;;;1.60;99.90;;;;;;4992651;28;20174;-60
2024/01/28 04:19:31;;;;;;;13.30;3.87;;;1.60;99.90;;;;;;4992403;28;20597;-60
2024/01/28 04:21:57;;;;;;;10.47;5.07;;;1.60;99.90;;;;;;4992143;28;20646;-60
2024/01/28 04:24:22;;;;;;;14.80;5.20;;;1.50;99.90;;;;;;4992185;28;20165;-60
2024/01/28 04:26:49;;;;;;;14.27;4.80;;;1.50;99.90;;;;;;4992055;28;20297;-60
2024/01/28 04:29:14;;;;;;;11.07;4.40;;;1.60;99.90;;;;;;4992092;28;20188;-60
2024/01/28 04:31:43;;;;;;;11.20;5.50;;;1.60;99.90;;;;;;4992012;28;20416;-59
2024/01/28 04:34:10;;;;;;;10.83;5.50;;;1.60;99.90;;;;;;4992287;28;20210;-57
2024/01/28 04:36:36;;;;;;;17.07;4.97;;;1.60;99.90;;;;;;4992004;28;20458;-60
2024/01/28 04:39:02;;;;;;;12.83;4.67;;;1.50;99.90;;;;;;4986316;28;20408;-60
2024/01/28 04:41:28;;;;;;;15.83;5.80;;;1.50;99.90;;;;;;4999954;28;20463;-60
2024/01/28 04:43:54;;;;;;;16.33;5.80;;;1.50;99.90;;;;;;4992163;28;20424;-61
2024/01/28 04:46:19;;;;;;;11.53;5.60;;;1.60;99.90;;;;;;4991971;28;20498;-61
2024/01/28 04:48:45;;;;;;;10.77;4.70;;;1.60;99.90;;;;;;4991707;28;20397;-60
2024/01/28 04:51:11;;;;;;;14.23;5.37;;;1.50;99.90;;;;;;4991958;28;20679;-61
2024/01/28 04:53:36;;;;;;;18.20;5.60;;;1.50;99.90;;;;;;4991873;28;20207;-60
2024/01/28 04:56:02;;;;;;;15.13;6.43;;;1.40;99.90;;;;;;4987562;28;20315;-60
2024/01/28 04:58:28;;;;;;;6.17;4.77;;;1.40;99.90;;;;;;4992380;28;20184;-61
2024/01/28 05:00:54;;;;;;;12.50;5.23;;;1.50;99.90;;;;;;4992439;28;20450;-59
2024/01/28 05:03:20;;;;;;;12.13;5.93;;;1.50;99.90;;;;;;4991569;28;20643;-60
2024/01/28 05:05:46;;;;;;;8.50;5.37;;;1.40;99.90;;;;;;4991485;28;20431;-59
2024/01/28 05:08:12;;;;;;;11.00;4.77;;;1.50;99.90;;;;;;4991581;28;20183;-60
2024/01/28 05:10:38;;;;;;;7.30;4.20;;;1.50;99.90;;;;;;4991302;28;20668;-61
2024/01/28 05:13:04;;;;;;;13.83;5.20;;;1.50;99.90;;;;;;4991890;28;20502;-61
2024/01/28 05:15:31;;;;;;;10.67;6.67;;;1.40;99.90;;;;;;4991878;28;20594;-60
2024/01/28 05:17:56;;;;;;;12.73;5.87;;;1.40;99.90;;;;;;4991673;28;20548;-60
2024/01/28 05:20:22;;;;;;;13.43;6.53;;;1.30;99.90;;;;;;4991569;28;20443;-60
2024/01/28 05:22:47;;;;;;;9.70;4.83;;;1.30;99.90;;;;;;4991473;28;20586;-60
2024/01/28 05:25:13;;;;;;;18.43;7.70;;;1.30;99.90;;;;;;4991568;28;20173;-60
2024/01/28 05:27:40;;;;;;;10.93;5.20;;;1.30;99.90;;;;;;4994179;28;20204;-60
2024/01/28 05:30:06;;;;;;;11.50;5.07;;;1.20;99.90;;;;;;4991996;28;20216;-60
2024/01/28 05:32:33;;;;;;;8.53;5.20;;;1.20;99.90;;;;;;4995759;28;20423;-60
2024/01/28 05:35:03;;;;;;;11.37;5.27;;;1.20;99.90;;;;;;4995894;28;20964;-60
2024/01/28 05:37:28;;;;;;;13.17;5.20;;;1.10;99.90;;;;;;4991085;28;20795;-60
2024/01/28 05:39:54;;;;;;;15.60;4.47;;;1.10;99.90;;;;;;4995327;28;20439;-60
2024/01/28 05:42:19;;;;;;;14.87;6.00;;;1.10;99.90;;;;;;4995378;28;20173;-60
2024/01/28 05:44:45;;;;;;;12.20;4.70;;;1.20;99.90;;;;;;4995325;28;20581;-58
2024/01/28 05:47:11;;;;;;;7.90;4.23;;;1.10;99.90;;;;;;4995517;28;20185;-60
2024/01/28 05:49:36;;;;;;;7.97;4.93;;;1.10;99.90;;;;;;4995595;28;20220;-59
2024/01/28 05:52:02;;;;;;;14.43;5.53;;;1.00;99.90;;;;;;4995653;28;20678;-61
2024/01/28 05:54:30;;;;;;;14.97;5.73;;;1.00;99.90;;;;;;4995129;28;20180;-61
2024/01/28 05:56:56;;;;;;;8.33;4.23;;;1.00;99.90;;;;;;4998935;28;20599;-59
2024/01/28 05:59:21;;;;;;;18.67;5.03;;;1.00;99.90;;;;;;4996025;28;20459;-59
2024/01/28 06:01:47;;;;;;;12.13;5.87;;;0.90;99.90;;;;;;4994723;28;20706;-60
2024/01/28 06:04:13;;;;;;;12.57;5.23;;;0.90;99.90;;;;;;4995099;28;20196;-60
2024/01/28 06:06:39;;;;;;;16.10;4.90;;;0.90;99.90;;;;;;4995084;28;20427;-59
2024/01/28 06:09:05;;;;;;;11.37;5.60;;;0.90;99.90;;;;;;4994448;28;20177;-60
2024/01/28 06:11:30;;;;;;;7.80;5.30;;;0.90;99.90;;;;;;4995311;28;20443;-61
2024/01/28 06:13:56;;;;;;;11.23;4.30;;;0.80;99.90;;;;;;4996860;28;20239;-59
2024/01/28 06:16:21;;;;;;;9.10;6.00;;;0.80;99.90;;;;;;4994690;28;20703;-59
2024/01/28 06:18:47;;;;;;;10.50;4.90;;;0.80;99.90;;;;;;4994668;28;20169;-60
2024/01/28 06:21:13;;;;;;;13.77;5.10;;;0.80;99.90;;;;;;4994770;28;20185;-60
2024/01/28 06:23:40;;;;;;;5.43;4.20;;;0.70;99.90;;;;;;4994396;28;20169;-63
2024/01/28 06:26:07;;;;;;;12.10;5.40;;;0.70;99.90;;;;;;4995662;28;20192;-60
2024/01/28 06:28:33;;;;;;;13.37;4.40;;;0.70;99.90;;;;;;4994374;28;20450;-59
2024/01/28 06:30:59;;;;;;;7.93;4.90;;;0.70;99.90;;;;;;4994254;28;20464;-59
2024/01/28 06:33:24;;;;;;;7.50;4.50;;;0.70;99.90;;;;;;4994837;28;20606;-59
2024/01/28 06:35:50;;;;;;;17.17;5.50;;;0.70;99.90;;;;;;4994329;28;20209;-60
2024/01/28 06:38:15;;;;;;;12.57;4.70;;;0.70;99.90;;;;;;4994617;28;20208;-60
2024/01/28 06:40:41;;;;;;;18.63;5.03;;;0.70;99.90;;;;;;4994168;28;20216;-58
2024/01/28 06:43:07;;;;;;;7.23;4.03;;;0.70;99.90;;;;;;4994110;28;20640;-60
2024/01/28 06:45:32;;;;;;;8.50;4.30;;;0.70;99.90;;;;;;4994505;28;20177;-60
2024/01/28 06:47:58;;;;;;;10.17;5.23;;;0.70;99.90;;;;;;4994088;28;20648;-60
2024/01/28 06:50:23;;;;;;;18.50;6.00;;;0.70;99.90;;;;;;5001255;28;20256;-60
2024/01/28 06:52:49;;;;;;;7.73;4.43;;;0.70;99.90;;;;;;4994909;28;20176;-59
2024/01/28 06:55:15;;;;;;;9.07;6.10;;;0.70;99.90;;;;;;4993789;28;20204;-60
2024/01/28 06:57:40;;;;;;;11.93;5.07;;;0.70;99.90;;;;;;4994133;28;20173;-60
2024/01/28 07:00:10;;;;;;;11.33;6.60;;;0.70;99.90;;;;;;4993604;28;20232;-61
2024/01/28 07:02:36;;;;;;;6.40;4.43;;;0.70;99.90;;;;;;4993246;28;20548;-58
2024/01/28 07:05:02;;;;;;;5.93;4.00;;;0.60;99.90;;;;;;4993932;28;20523;-60
2024/01/28 07:07:28;;;;;;;11.63;4.70;;;0.60;99.90;;;;;;4993644;28;20507;-60
2024/01/28 07:09:54;;;;;;;10.10;5.07;;;0.70;99.90;;;;;;4993299;28;20455;-60
2024/01/28 07:12:19;;;;;;;10.07;6.40;;;0.70;99.90;;;;;;4991742;28;20187;-60
2024/01/28 07:14:45;;;;;;;11.23;5.87;;;0.60;99.90;;;;;;5008649;28;20276;-59
2024/01/28 07:17:11;;;;;;;15.50;5.10;;;0.60;99.90;;;;;;4990906;28;20173;-59
2024/01/28 07:19:36;;;;;;;9.63;4.47;;;0.60;99.90;;;;;;4993500;28;20209;-59
2024/01/28 07:22:02;;;;;;;7.20;5.13;;;0.60;99.90;;;;;;4992909;28;20174;-56
2024/01/28 07:24:28;;;;;;;13.23;5.50;;;0.60;99.90;;;;;;4993474;28;20177;-64
2024/01/28 07:26:54;;;;;;;11.73;5.00;;;0.70;99.90;;;;;;4993635;28;20211;-59
2024/01/28 07:29:19;;;;;;;12.90;7.53;;;0.70;99.90;;;;;;4994067;28;20931;-63
2024/01/28 07:31:45;;;;;;;12.10;6.07;;;0.70;99.90;;;;;;4993393;28;20264;-66
2024/01/28 07:34:10;;;;;;;14.90;5.70;;;0.80;99.90;;;;;;4988056;28;20192;-61
2024/01/28 07:36:36;;;;;;;16.33;6.40;;;0.80;99.90;;;;;;4993749;28;20196;-60
2024/01/28 07:39:04;;;;;;;11.20;5.57;;;0.90;99.90;;;;;;4999002;28;20177;-61
2024/01/28 07:41:34;;;;;;;11.33;6.63;;;0.90;99.90;;;;;;4993297;28;20180;-57
2024/01/28 07:44:00;;;;;;;7.73;6.43;;;1.00;99.90;;;;;;4993505;28;20439;-59
2024/01/28 07:46:26;;;;;;;7.10;5.77;;;1.00;99.90;;;;;;5001298;28;20440;-60
2024/01/28 07:48:51;;;;;;;10.00;6.73;;;1.00;99.90;;;;;;4992740;28;20781;-60
2024/01/28 07:51:17;;;;;;;8.30;5.93;;;1.10;99.90;;;;;;4993203;28;20211;-60
2024/01/28 07:53:42;;;;;;;10.73;6.80;;;1.10;99.90;;;;;;4992165;28;20185;-60
2024/01/28 07:56:08;;;;;;;11.77;6.63;;;1.20;99.90;;;;;;4988518;28;20208;-61
2024/01/28 07:58:33;;;;;;;9.77;6.77;;;1.30;99.90;;;;;;4993249;28;20550;-60
2024/01/28 08:00:59;;;;;;;18.03;6.80;;;1.30;99.90;;;;;;4992582;28;20192;-59
2024/01/28 08:03:25;;;;;;;15.03;6.77;;;1.40;99.90;;;;;;4989641;28;20192;-61
2024/01/28 08:05:50;;;;;;;12.00;6.67;;;1.40;99.90;;;;;;4990430;28;20269;-60
2024/01/28 08:08:16;;;;;;;14.63;7.33;;;1.50;99.90;;;;;;4992806;28;20228;-60
2024/01/28 08:10:42;;;;;;;17.23;6.60;;;1.60;99.90;;;;;;4992483;28;20286;-61
2024/01/28 08:13:07;;;;;;;10.30;6.33;;;1.60;99.90;;;;;;4992492;28;20224;-60
2024/01/28 08:15:33;;;;;;;12.83;7.53;;;2.00;99.90;;;;;;4992799;28;20208;-58
2024/01/28 08:17:58;;;;;;;14.60;7.80;;;2.80;99.90;;;;;;4992502;28;20177;-60
2024/01/28 08:20:24;;;;;;;14.00;6.70;;;3.70;99.90;;;;;;4992195;28;20272;-60
2024/01/28 08:22:50;;;;;;;13.60;6.80;;;4.00;99.90;;;;;;4992177;28;20200;-60
2024/01/28 08:25:16;;;;;;;12.83;8.10;;;4.30;99.90;;;;;;4992609;28;20644;-60
2024/01/28 08:27:41;;;;;;;15.00;7.97;;;4.10;99.90;;;;;;4992353;28;20412;-60
2024/01/28 08:30:08;;;;;;;15.53;7.30;;;4.70;99.90;;;;;;4991995;28;20205;-59
2024/01/28 08:32:34;;;;;;;15.17;8.13;;;4.80;99.90;;;;;;4992126;28;20670;-58
2024/01/28 08:35:00;;;;;;;28.70;15.13;;;5.20;99.90;;;;;;4992814;28;20535;-60
2024/01/28 08:37:26;;;;;;;21.03;8.73;;;5.30;99.90;;;;;;4993524;28;20503;-59
2024/01/28 08:39:51;;;;;;;10.97;6.43;;;5.70;99.90;;;;;;4991309;28;20447;-59
2024/01/28 08:42:21;;;;;;;15.80;7.80;;;5.80;99.90;;;;;;4997447;28;20417;-60
2024/01/28 08:44:47;;;;;;;10.80;6.03;;;5.20;99.90;;;;;;4993754;28;20316;-62
2024/01/28 08:47:15;;;;;;;9.20;6.50;;;4.10;99.90;;;;;;4991281;28;20921;-62
2024/01/28 08:49:44;;;;;;;11.63;6.50;;;4.00;99.90;;;;;;4997023;28;20235;-63
2024/01/28 08:52:11;;;;;;;13.83;6.67;;;4.30;99.90;;;;;;4989548;28;20440;-64
2024/01/28 08:54:39;;;;;;;13.73;7.23;;;4.50;99.90;;;;;;4996733;28;20415;-65
2024/01/28 08:57:09;;;;;;;11.03;6.23;;;4.70;99.90;;;;;;4995825;28;20517;-64
2024/01/28 08:59:38;;;;;;;14.07;7.30;;;5.10;99.90;;;;;;4991999;28;20711;-64
2024/01/28 09:02:12;;;;;;;13.50;6.60;;;5.00;99.90;;;;;;4988165;28;20417;-65
2024/01/28 09:04:40;;;;;;;13.27;7.70;;;5.60;99.90;;;;;;4991175;28;20893;-65
2024/01/28 09:07:06;;;;;;;14.97;6.23;;;5.70;99.90;;;;;;4989618;28;20557;-60
2024/01/28 09:09:32;;;;;;;12.87;6.70;;;5.90;99.90;;;;;;4991262;28;20437;-60
2024/01/28 09:12:00;;;;;;;10.00;6.23;;;6.30;99.90;;;;;;4994847;28;20419;-60
2024/01/28 09:14:26;;;;;;;10.10;6.63;;;6.60;99.90;;;;;;4991421;28;20191;-60
2024/01/28 09:16:52;;;;;;;9.73;7.50;;;7.50;99.90;;;;;;4991468;28;20748;-60
2024/01/28 09:19:18;;;;;;;8.73;5.77;;;7.00;99.90;;;;;;4991178;28;20998;-59
2024/01/28 09:21:43;;;;;;;16.67;7.73;;;7.10;99.90;;;;;;4991534;28;20176;-58
2024/01/28 09:24:09;;;;;;;11.10;5.63;;;6.40;99.90;;;;;;4991258;28;20706;-59
2024/01/28 09:26:35;;;;;;;12.43;6.80;;;6.10;99.90;;;;;;4991027;28;20184;-61
2024/01/28 09:29:00;;;;;;;13.60;6.40;;;5.70;99.90;;;;;;4990570;28;20650;-60
2024/01/28 09:31:26;;;;;;;10.20;6.00;;;5.80;99.90;;;;;;4991235;28;20468;-60
2024/01/28 09:33:52;;;;;;;11.03;6.53;;;5.70;99.90;;;;;;4991318;28;20243;-60
2024/01/28 09:36:17;;;;;;;12.73;6.50;;;5.30;99.90;;;;;;4990869;28;20607;-59
2024/01/28 09:38:43;;;;;;;9.90;6.00;;;5.20;99.90;;;;;;4991286;28;20699;-57
2024/01/28 09:41:24;;;;;;;16.70;6.20;;;5.20;99.90;;;;;;4990556;28;20292;-58
2024/01/28 09:43:50;;;;;;;14.23;6.30;;;4.80;99.90;;;;;;4987489;28;20170;-59
2024/01/28 09:46:17;;;;;;;11.90;6.13;;;4.90;99.90;;;;;;4990551;28;20418;-58
2024/01/28 09:48:45;;;;;;;11.83;6.60;;;4.90;99.90;;;;;;4989511;28;20185;-60
2024/01/28 09:51:12;;;;;;;17.00;6.00;;;5.00;99.90;;;;;;4989975;28;20453;-59
2024/01/28 09:53:40;;;;;;;14.43;5.37;;;5.00;99.90;;;;;;4993578;28;20501;-59
2024/01/28 09:56:10;;;;;;;7.67;5.03;;;5.10;99.90;;;;;;4990071;28;20491;-59
2024/01/28 09:58:37;;;;;;;14.47;4.70;;;5.10;99.90;;;;;;4989909;28;20417;-59
2024/01/28 10:01:03;;;;;;;8.00;4.83;;;5.10;99.90;;;;;;4988817;28;20424;-60
2024/01/28 10:03:31;;;;;;;7.57;4.27;;;5.10;99.90;;;;;;4991645;28;20768;-59
2024/01/28 10:05:56;;;;;;;9.67;4.83;;;5.00;99.90;;;;;;4990644;28;20433;-57
2024/01/28 10:08:26;;;;;;;13.40;5.30;;;4.90;99.90;;;;;;4990777;28;20427;-60
2024/01/28 10:10:55;;;;;;;5.40;4.60;;;4.90;99.90;;;;;;4990534;28;20207;-61
2024/01/28 10:13:21;;;;;;;8.70;4.33;;;5.00;99.90;;;;;;4994126;28;20781;-59
2024/01/28 10:15:56;;;;;;;11.03;5.10;;;5.10;99.90;;;;;;4997597;28;20455;-58
2024/01/28 10:18:23;;;;;;;11.70;5.80;;;5.10;99.90;;;;;;4995353;28;20420;-59
2024/01/28 10:20:49;;;;;;;30.97;5.60;;;5.10;99.90;;;;;;4994211;28;21032;-60
2024/01/28 10:23:15;;;;;;;10.17;5.73;;;5.10;99.90;;;;;;4993827;28;20511;-60
2024/01/28 10:25:41;;;;;;;11.13;4.70;;;5.10;99.90;;;;;;4994579;28;20181;-57
2024/01/28 10:28:08;;;;;;;20.90;5.80;;;5.10;99.90;;;;;;4993817;28;20911;-56
2024/01/28 10:30:34;;;;;;;14.43;5.33;;;5.30;99.90;;;;;;4993914;28;20288;-57
2024/01/28 10:33:00;;;;;;;9.03;4.67;;;5.30;99.90;;;;;;4993583;28;20904;-61
2024/01/28 10:35:25;;;;;;;16.20;5.50;;;5.20;99.90;;;;;;4992338;28;20502;-60
2024/01/28 10:37:53;;;;;;;14.07;5.07;;;5.20;99.90;;;;;;4993626;28;20177;-58
2024/01/28 10:40:19;;;;;;;7.03;4.60;;;5.20;99.90;;;;;;4995256;28;20193;-58
2024/01/28 10:42:48;;;;;;;10.90;5.20;;;5.20;99.90;;;;;;4997193;28;20507;-60
2024/01/28 10:45:18;;;;;;;10.97;5.00;;;5.30;99.90;;;;;;4995623;28;21028;-60
2024/01/28 10:47:54;;;;;;;14.93;4.97;;;5.40;99.90;;;;;;4992943;28;20550;-60
2024/01/28 10:50:21;;;;;;;12.07;4.60;;;5.50;99.90;;;;;;4990872;28;20816;-60
2024/01/28 10:52:48;;;;;;;13.03;4.33;;;5.50;99.90;;;;;;4990259;28;20960;-61
2024/01/28 10:55:15;;;;;;;11.03;4.27;;;5.50;99.90;;;;;;4993334;28;20459;-61
2024/01/28 10:57:42;;;;;;;9.80;5.30;;;5.50;99.90;;;;;;4994362;28;20422;-59
2024/01/28 11:00:10;;;;;;;14.33;4.50;;;5.60;99.90;;;;;;4993421;28;21113;-60
2024/01/28 11:02:41;;;;;;;8.20;4.90;;;5.70;99.90;;;;;;4993314;28;20413;-57
2024/01/28 11:05:07;;;;;;;11.70;4.60;;;5.80;99.90;;;;;;4993210;28;20814;-60
2024/01/28 11:07:34;;;;;;;11.43;5.80;;;5.80;99.90;;;;;;4990103;28;20475;-57
2024/01/28 11:09:59;;;;;;;16.37;4.40;;;5.90;99.90;;;;;;4992219;28;20498;-60
2024/01/28 11:12:26;;;;;;;8.23;4.60;;;5.80;99.90;;;;;;4991713;28;20421;-60
2024/01/28 11:14:52;;;;;;;6.03;4.30;;;5.90;99.90;;;;;;4993212;28;20204;-62
2024/01/28 11:17:18;;;;;;;7.23;4.83;;;6.00;99.90;;;;;;4992651;28;20424;-60
2024/01/28 11:19:43;;;;;;;6.30;4.30;;;6.10;99.90;;;;;;4993037;28;20209;-58
2024/01/28 11:22:15;;;;;;;11.67;6.00;;;6.10;99.90;;;;;;4993625;28;20201;-59
2024/01/28 11:24:52;;;;;;;8.07;5.30;;;6.10;99.90;;;;;;4989156;28;20177;-60
2024/01/28 11:27:21;;;;;;;7.87;3.90;;;6.20;99.90;;;;;;4992112;28;20425;-62
2024/01/28 11:29:47;;;;;;;13.03;5.63;;;6.20;99.90;;;;;;4993025;28;20438;-61
2024/01/28 11:32:14;;;;;;;11.03;5.50;;;6.40;99.90;;;;;;4992582;28;20417;-62
2024/01/28 11:34:43;;;;;;;10.17;4.60;;;6.40;99.90;;;;;;4991555;28;20185;-61
2024/01/28 11:37:12;;;;;;;8.93;5.50;;;6.40;99.90;;;;;;4995623;28;20424;-60
2024/01/28 11:39:46;;;;;;;8.90;3.70;;;6.40;99.90;;;;;;4992602;28;20437;-60
2024/01/28 11:42:12;;;;;;;15.40;5.67;;;6.40;99.90;;;;;;4990138;28;20423;-58
2024/01/28 11:44:39;;;;;;;7.33;4.93;;;6.40;99.90;;;;;;4999020;28;20424;-59
2024/01/28 11:47:06;;;;;;;11.83;5.00;;;6.50;99.90;;;;;;4993708;28;20418;-61
2024/01/28 11:49:32;;;;;;;9.10;4.70;;;6.50;99.90;;;;;;4992517;28;21112;-60
2024/01/28 11:51:59;;;;;;;12.07;5.10;;;6.50;99.90;;;;;;4992584;28;20471;-58
2024/01/28 11:54:30;;;;;;;12.10;5.53;;;6.60;99.90;;;;;;4992155;28;20908;-64
2024/01/28 11:56:56;;;;;;;9.80;5.33;;;6.60;99.90;;;;;;4992228;28;20256;-61
2024/01/28 11:59:22;;;;;;;10.13;4.33;;;6.60;99.90;;;;;;4996314;28;20441;-59
2024/01/28 12:01:48;;;;;;;13.53;4.60;;;6.70;99.90;;;;;;4993126;28;20176;-61
2024/01/28 12:04:13;;;;;;;5.60;4.00;;;6.70;99.90;;;;;;4989698;28;20776;-61
2024/01/28 12:06:39;;;;;;;11.00;5.37;;;6.80;99.90;;;;;;4992110;28;20194;-58
2024/01/28 12:09:05;;;;;;;6.60;3.67;;;6.80;99.90;;;;;;4994104;28;20187;-60
2024/01/28 12:11:32;;;;;;;7.80;4.40;;;6.80;99.90;;;;;;4986245;28;20273;-60
2024/01/28 12:13:59;;;;;;;9.70;5.20;;;6.90;99.90;;;;;;4990809;28;20453;-60
2024/01/28 12:16:25;;;;;;;18.83;5.10;;;7.00;99.90;;;;;;4991875;28;20457;-59
2024/01/28 12:18:54;;;;;;;7.50;4.20;;;6.90;99.90;;;;;;4992501;28;20801;-60
2024/01/28 12:21:21;;;;;;;10.00;5.80;;;6.90;99.90;;;;;;4991656;28;20980;-61
2024/01/28 12:23:56;;;;;;;5.50;4.10;;;7.00;99.90;;;;;;4987824;28;20936;-61
2024/01/28 12:26:22;;;;;;;8.13;3.90;;;7.10;99.90;;;;;;4985852;28;20974;-60
2024/01/28 12:28:50;;;;;;;8.20;5.60;;;7.10;99.90;;;;;;4981125;28;21005;-60
2024/01/28 12:31:18;;;;;;;8.30;5.23;;;7.20;99.90;;;;;;4990878;28;20473;-60
2024/01/28 12:33:44;;;;;;;14.50;6.07;;;7.30;99.90;;;;;;4990061;28;20527;-61
2024/01/28 12:36:10;;;;;;;5.97;4.20;;;7.20;99.90;;;;;;4983812;28;20507;-61
2024/01/28 12:38:36;;;;;;;8.03;4.13;;;7.20;99.90;;;;;;4992544;28;20502;-61
2024/01/28 12:41:01;;;;;;;8.87;4.30;;;7.20;99.90;;;;;;4991913;28;20193;-61
2024/01/28 12:43:27;;;;;;;8.33;4.47;;;7.30;99.90;;;;;;4984325;28;20530;-61
2024/01/28 12:45:52;;;;;;;11.10;5.40;;;7.30;99.90;;;;;;4984765;28;20201;-59